sensor_id;sensor_type;location;lat;lon;timestamp;pressure;altitude;pressure_sealevel;temperature;humidity
8699;BME280;4386;51.236;6.742;2022-12-29T00:01:00;99909.56;;;12.19;83.27
8699;BME280;4386;51.236;6.742;2022-12-29T00:02:13;99909.25;;;12.22;83.54
8699;BME280;4386;51.236;6.742;2022-12-29T00:03:14;99898.34;;;12.25;83.32
8699;BME280;4386;51.236;6.742;2022-12-29T00:04:18;99903.34;;;12.28;83.47
8699;BME280;4386;51.236;6.742;2022-12-29T00:05:20;99898.72;;;12.30;83.52
8699;BME280;4386;51.236;6.742;2022-12-29T00:06:22;99900.25;;;12.32;83.24
8699;BME280;4386;51.236;6.742;2022-12-29T00:07:26;99884.13;;;12.34;83.34
8699;BME280;4386;51.236;6.742;2022-12-29T00:08:27;99888.47;;;12.35;83.29
8699;BME280;4386;51.236;6.742;2022-12-29T00:09:42;99882.19;;;12.36;83.13
8699;BME280;4386;51.236;6.742;2022-12-29T00:10:44;99875.84;;;12.37;83.32
8699;BME280;4386;51.236;6.742;2022-12-29T00:11:46;99878.38;;;12.38;83.18
8699;BME280;4386;51.236;6.742;2022-12-29T00:12:48;99883.56;;;12.40;83.04
8699;BME280;4386;51.236;6.742;2022-12-29T00:14:09;99876.38;;;12.40;83.27
8699;BME280;4386;51.236;6.742;2022-12-29T00:15:29;99878.91;;;12.42;82.91
8699;BME280;4386;51.236;6.742;2022-12-29T00:16:42;99864.78;;;12.41;83.15
8699;BME280;4386;51.236;6.742;2022-12-29T00:17:45;99869.13;;;12.42;83.14
8699;BME280;4386;51.236;6.742;2022-12-29T00:18:46;99862.66;;;12.45;82.82
8699;BME280;4386;51.236;6.742;2022-12-29T00:19:49;99871.31;;;12.47;82.93
8699;BME280;4386;51.236;6.742;2022-12-29T00:21:13;99870.50;;;12.46;82.99
8699;BME280;4386;51.236;6.742;2022-12-29T00:22:34;99871.47;;;12.45;82.84
8699;BME280;4386;51.236;6.742;2022-12-29T00:23:54;99870.78;;;12.43;83.08
8699;BME280;4386;51.236;6.742;2022-12-29T00:25:23;99875.28;;;12.43;83.08
8699;BME280;4386;51.236;6.742;2022-12-29T00:26:50;99868.41;;;12.40;82.85
8699;BME280;4386;51.236;6.742;2022-12-29T00:28:13;99858.94;;;12.38;83.04
8699;BME280;4386;51.236;6.742;2022-12-29T00:29:35;99867.22;;;12.35;82.99
8699;BME280;4386;51.236;6.742;2022-12-29T00:30:58;99870.03;;;12.33;82.99
8699;BME280;4386;51.236;6.742;2022-12-29T00:32:19;99855.06;;;12.32;83.17
8699;BME280;4386;51.236;6.742;2022-12-29T00:33:39;99848.25;;;12.30;83.24
8699;BME280;4386;51.236;6.742;2022-12-29T00:35:00;99863.34;;;12.29;83.11
8699;BME280;4386;51.236;6.742;2022-12-29T00:36:16;99844.91;;;12.28;83.20
8699;BME280;4386;51.236;6.742;2022-12-29T00:37:20;99849.38;;;12.27;83.19
8699;BME280;4386;51.236;6.742;2022-12-29T00:38:46;99850.22;;;12.28;83.08
8699;BME280;4386;51.236;6.742;2022-12-29T00:40:08;99853.03;;;12.26;83.26
8699;BME280;4386;51.236;6.742;2022-12-29T00:41:28;99850.50;;;12.25;83.16
8699;BME280;4386;51.236;6.742;2022-12-29T00:42:49;99849.69;;;12.24;83.19
8699;BME280;4386;51.236;6.742;2022-12-29T00:44:11;99842.53;;;12.25;83.15
8699;BME280;4386;51.236;6.742;2022-12-29T00:45:15;99857.50;;;12.26;83.30
8699;BME280;4386;51.236;6.742;2022-12-29T00:46:18;99846.88;;;12.26;83.30
8699;BME280;4386;51.236;6.742;2022-12-29T00:47:21;99835.28;;;12.27;83.32
8699;BME280;4386;51.236;6.742;2022-12-29T00:48:22;99836.09;;;12.27;83.29
8699;BME280;4386;51.236;6.742;2022-12-29T00:49:39;99835.09;;;12.28;83.28
8699;BME280;4386;51.236;6.742;2022-12-29T00:50:42;99841.25;;;12.29;83.28
8699;BME280;4386;51.236;6.742;2022-12-29T00:51:43;99833.97;;;12.31;83.27
8699;BME280;4386;51.236;6.742;2022-12-29T00:52:45;99837.31;;;12.33;83.32
8699;BME280;4386;51.236;6.742;2022-12-29T00:53:49;99832.53;;;12.36;83.27
8699;BME280;4386;51.236;6.742;2022-12-29T00:54:51;99829.72;;;12.38;83.13
8699;BME280;4386;51.236;6.742;2022-12-29T00:55:53;99842.84;;;12.39;82.96
8699;BME280;4386;51.236;6.742;2022-12-29T00:56:55;99823.25;;;12.40;83.18
8699;BME280;4386;51.236;6.742;2022-12-29T00:57:58;99825.78;;;12.42;83.38
8699;BME280;4386;51.236;6.742;2022-12-29T00:59:00;99841.41;;;12.45;83.07
8699;BME280;4386;51.236;6.742;2022-12-29T01:00:03;99842.06;;;12.47;82.85
8699;BME280;4386;51.236;6.742;2022-12-29T01:01:12;99823.31;;;12.48;82.74
8699;BME280;4386;51.236;6.742;2022-12-29T01:02:15;99830.16;;;12.51;82.93
8699;BME280;4386;51.236;6.742;2022-12-29T01:03:18;99821.19;;;12.52;82.73
8699;BME280;4386;51.236;6.742;2022-12-29T01:04:20;99833.34;;;12.54;82.49
8699;BME280;4386;51.236;6.742;2022-12-29T01:05:23;99818.91;;;12.57;82.66
8699;BME280;4386;51.236;6.742;2022-12-29T01:06:36;99825.91;;;12.58;82.16
8699;BME280;4386;51.236;6.742;2022-12-29T01:07:39;99822.25;;;12.59;82.48
8699;BME280;4386;51.236;6.742;2022-12-29T01:08:50;99817.78;;;12.60;82.28
8699;BME280;4386;51.236;6.742;2022-12-29T01:10:14;99814.13;;;12.61;82.24
8699;BME280;4386;51.236;6.742;2022-12-29T01:11:19;99821.09;;;12.62;82.44
8699;BME280;4386;51.236;6.742;2022-12-29T01:12:20;99819.13;;;12.64;82.12
8699;BME280;4386;51.236;6.742;2022-12-29T01:13:41;99820.94;;;12.63;81.82
8699;BME280;4386;51.236;6.742;2022-12-29T01:14:45;99826.94;;;12.65;81.88
8699;BME280;4386;51.236;6.742;2022-12-29T01:15:49;99825.13;;;12.66;81.87
8699;BME280;4386;51.236;6.742;2022-12-29T01:16:52;99824.97;;;12.67;81.86
8699;BME280;4386;51.236;6.742;2022-12-29T01:17:55;99831.13;;;12.68;81.67
8699;BME280;4386;51.236;6.742;2022-12-29T01:19:08;99834.63;;;12.68;81.41
8699;BME280;4386;51.236;6.742;2022-12-29T01:20:12;99829.28;;;12.68;81.61
8699;BME280;4386;51.236;6.742;2022-12-29T01:21:15;99824.66;;;12.70;81.55
8699;BME280;4386;51.236;6.742;2022-12-29T01:22:17;99831.63;;;12.71;81.71
8699;BME280;4386;51.236;6.742;2022-12-29T01:23:19;99824.50;;;12.72;81.35
8699;BME280;4386;51.236;6.742;2022-12-29T01:24:22;99830.50;;;12.74;81.32
8699;BME280;4386;51.236;6.742;2022-12-29T01:25:25;99831.31;;;12.74;81.31
8699;BME280;4386;51.236;6.742;2022-12-29T01:26:27;99825.03;;;12.75;81.26
8699;BME280;4386;51.236;6.742;2022-12-29T01:27:33;99826.69;;;12.76;81.15
8699;BME280;4386;51.236;6.742;2022-12-29T01:28:35;99831.00;;;12.77;80.90
8699;BME280;4386;51.236;6.742;2022-12-29T01:29:40;99831.00;;;12.77;80.92
8699;BME280;4386;51.236;6.742;2022-12-29T01:30:41;99818.41;;;12.79;81.14
8699;BME280;4386;51.236;6.742;2022-12-29T01:31:44;99825.38;;;12.80;80.61
8699;BME280;4386;51.236;6.742;2022-12-29T01:32:45;99820.06;;;12.80;80.62
8699;BME280;4386;51.236;6.742;2022-12-29T01:33:48;99832.38;;;12.81;80.66
8699;BME280;4386;51.236;6.742;2022-12-29T01:35:00;99820.91;;;12.81;80.60
8699;BME280;4386;51.236;6.742;2022-12-29T01:36:10;99825.38;;;12.80;80.78
8699;BME280;4386;51.236;6.742;2022-12-29T01:37:12;99830.69;;;12.80;80.52
8699;BME280;4386;51.236;6.742;2022-12-29T01:38:15;99831.72;;;12.79;80.20
8699;BME280;4386;51.236;6.742;2022-12-29T01:39:18;99824.53;;;12.80;80.35
8699;BME280;4386;51.236;6.742;2022-12-29T01:40:22;99824.53;;;12.80;80.35
8699;BME280;4386;51.236;6.742;2022-12-29T01:41:34;99825.38;;;12.80;80.20
8699;BME280;4386;51.236;6.742;2022-12-29T01:42:37;99822.91;;;12.79;80.16
8699;BME280;4386;51.236;6.742;2022-12-29T01:43:42;99818.41;;;12.79;80.20
8699;BME280;4386;51.236;6.742;2022-12-29T01:44:49;99824.84;;;12.77;80.34
8699;BME280;4386;51.236;6.742;2022-12-29T01:45:53;99821.22;;;12.78;80.11
8699;BME280;4386;51.236;6.742;2022-12-29T01:46:56;99812.41;;;12.77;80.09
8699;BME280;4386;51.236;6.742;2022-12-29T01:48:01;99820.38;;;12.77;80.05
8699;BME280;4386;51.236;6.742;2022-12-29T01:49:11;99815.06;;;12.77;79.69
8699;BME280;4386;51.236;6.742;2022-12-29T01:50:17;99817.72;;;12.77;80.06
8699;BME280;4386;51.236;6.742;2022-12-29T01:51:22;99808.91;;;12.77;79.67
8699;BME280;4386;51.236;6.742;2022-12-29T01:52:26;99805.25;;;12.78;79.85
8699;BME280;4386;51.236;6.742;2022-12-29T01:53:32;99810.44;;;12.79;79.62
8699;BME280;4386;51.236;6.742;2022-12-29T01:54:37;99801.78;;;12.77;79.88
8699;BME280;4386;51.236;6.742;2022-12-29T01:55:45;99800.78;;;12.78;79.60
8699;BME280;4386;51.236;6.742;2022-12-29T01:56:52;99800.09;;;12.76;79.45
8699;BME280;4386;51.236;6.742;2022-12-29T01:57:57;99794.78;;;12.76;79.52
8699;BME280;4386;51.236;6.742;2022-12-29T01:59:06;99792.28;;;12.75;79.48
8699;BME280;4386;51.236;6.742;2022-12-29T02:00:11;99794.94;;;12.75;79.47
8699;BME280;4386;51.236;6.742;2022-12-29T02:01:18;99797.75;;;12.73;79.29
8699;BME280;4386;51.236;6.742;2022-12-29T02:02:23;99803.91;;;12.74;79.37
8699;BME280;4386;51.236;6.742;2022-12-29T02:03:28;99801.25;;;12.74;79.23
8699;BME280;4386;51.236;6.742;2022-12-29T02:04:39;99792.44;;;12.73;79.33
8699;BME280;4386;51.236;6.742;2022-12-29T02:05:48;99798.59;;;12.74;79.18
8699;BME280;4386;51.236;6.742;2022-12-29T02:06:53;99796.75;;;12.74;79.10
8699;BME280;4386;51.236;6.742;2022-12-29T02:07:58;99793.28;;;12.74;78.97
8699;BME280;4386;51.236;6.742;2022-12-29T02:09:01;99795.94;;;12.74;78.97
8699;BME280;4386;51.236;6.742;2022-12-29T02:10:05;99798.59;;;12.74;78.85
8699;BME280;4386;51.236;6.742;2022-12-29T02:11:09;99803.06;;;12.73;78.70
8699;BME280;4386;51.236;6.742;2022-12-29T02:12:12;99802.25;;;12.73;78.83
8699;BME280;4386;51.236;6.742;2022-12-29T02:13:15;99796.09;;;12.72;78.49
8699;BME280;4386;51.236;6.742;2022-12-29T02:14:18;99799.75;;;12.71;78.74
8699;BME280;4386;51.236;6.742;2022-12-29T02:15:32;99803.22;;;12.72;78.61
8699;BME280;4386;51.236;6.742;2022-12-29T02:16:53;99783.78;;;12.71;78.62
8699;BME280;4386;51.236;6.742;2022-12-29T02:18:13;99803.38;;;12.70;78.56
8699;BME280;4386;51.236;6.742;2022-12-29T02:19:47;99798.06;;;12.70;78.74
8699;BME280;4386;51.236;6.742;2022-12-29T02:22:34;99785.78;;;12.69;78.22
8699;BME280;4386;51.236;6.742;2022-12-29T02:24:12;99785.78;;;12.69;78.34
8699;BME280;4386;51.236;6.742;2022-12-29T02:25:34;99788.59;;;12.68;78.37
8699;BME280;4386;51.236;6.742;2022-12-29T02:26:55;99782.44;;;12.67;78.11
8699;BME280;4386;51.236;6.742;2022-12-29T02:29:52;99789.41;;;12.68;78.11
8699;BME280;4386;51.236;6.742;2022-12-29T02:31:12;99778.13;;;12.66;78.09
8699;BME280;4386;51.236;6.742;2022-12-29T02:32:24;99777.09;;;12.67;77.92
8699;BME280;4386;51.236;6.742;2022-12-29T02:33:42;99778.13;;;12.66;77.91
8699;BME280;4386;51.236;6.742;2022-12-29T02:34:57;99780.09;;;12.64;77.98
8699;BME280;4386;51.236;6.742;2022-12-29T02:36:07;99772.09;;;12.64;77.76
8699;BME280;4386;51.236;6.742;2022-12-29T02:37:20;99775.75;;;12.63;77.80
8699;BME280;4386;51.236;6.742;2022-12-29T02:38:44;99778.56;;;12.62;77.97
8699;BME280;4386;51.236;6.742;2022-12-29T02:39:57;99766.13;;;12.62;77.54
8699;BME280;4386;51.236;6.742;2022-12-29T02:41:06;99783.72;;;12.63;77.75
8699;BME280;4386;51.236;6.742;2022-12-29T02:42:16;99765.94;;;12.64;77.68
8699;BME280;4386;51.236;6.742;2022-12-29T02:43:25;99768.47;;;12.65;77.65
8699;BME280;4386;51.236;6.742;2022-12-29T02:44:34;99767.31;;;12.68;77.10
8699;BME280;4386;51.236;6.742;2022-12-29T02:45:54;99760.84;;;12.70;77.38
8699;BME280;4386;51.236;6.742;2022-12-29T02:47:12;99766.16;;;12.70;77.16
8699;BME280;4386;51.236;6.742;2022-12-29T02:48:25;99759.84;;;12.71;77.26
8699;BME280;4386;51.236;6.742;2022-12-29T02:49:33;99760.69;;;12.72;77.13
8699;BME280;4386;51.236;6.742;2022-12-29T02:50:37;99772.00;;;12.74;77.05
8699;BME280;4386;51.236;6.742;2022-12-29T02:51:48;99760.53;;;12.73;76.85
8699;BME280;4386;51.236;6.742;2022-12-29T02:52:56;99758.72;;;12.74;76.97
8699;BME280;4386;51.236;6.742;2022-12-29T02:54:00;99756.88;;;12.74;77.01
8699;BME280;4386;51.236;6.742;2022-12-29T02:55:21;99747.22;;;12.73;76.83
8699;BME280;4386;51.236;6.742;2022-12-29T02:56:23;99746.25;;;12.74;76.87
8699;BME280;4386;51.236;6.742;2022-12-29T02:57:29;99740.94;;;12.74;76.75
8699;BME280;4386;51.236;6.742;2022-12-29T02:58:32;99748.91;;;12.74;76.77
8699;BME280;4386;51.236;6.742;2022-12-29T02:59:34;99736.47;;;12.75;76.68
8699;BME280;4386;51.236;6.742;2022-12-29T03:00:39;99736.28;;;12.76;76.77
8699;BME280;4386;51.236;6.742;2022-12-29T03:01:59;99738.94;;;12.76;76.64
8699;BME280;4386;51.236;6.742;2022-12-29T03:03:29;99735.63;;;12.74;76.62
8699;BME280;4386;51.236;6.742;2022-12-29T03:04:40;99722.31;;;12.74;76.53
8699;BME280;4386;51.236;6.742;2022-12-29T03:05:57;99742.63;;;12.75;76.53
8699;BME280;4386;51.236;6.742;2022-12-29T03:07:12;99747.94;;;12.75;76.45
8699;BME280;4386;51.236;6.742;2022-12-29T03:08:24;99730.97;;;12.76;76.59
8699;BME280;4386;51.236;6.742;2022-12-29T03:09:36;99731.81;;;12.77;76.34
8699;BME280;4386;51.236;6.742;2022-12-29T03:10:46;99735.31;;;12.77;76.54
8699;BME280;4386;51.236;6.742;2022-12-29T03:11:58;99738.66;;;12.79;76.63
8699;BME280;4386;51.236;6.742;2022-12-29T03:13:24;99748.28;;;12.80;76.55
8699;BME280;4386;51.236;6.742;2022-12-29T03:14:55;99728.81;;;12.80;76.47
8699;BME280;4386;51.236;6.742;2022-12-29T03:16:22;99738.66;;;12.79;76.48
8699;BME280;4386;51.236;6.742;2022-12-29T03:17:31;99734.13;;;12.80;76.44
8699;BME280;4386;51.236;6.742;2022-12-29T03:18:41;99731.34;;;12.81;76.51
8699;BME280;4386;51.236;6.742;2022-12-29T03:19:50;99737.50;;;12.82;76.18
8699;BME280;4386;51.236;6.742;2022-12-29T03:20:58;99729.34;;;12.83;76.58
8699;BME280;4386;51.236;6.742;2022-12-29T03:22:05;99731.84;;;12.85;76.44
8699;BME280;4386;51.236;6.742;2022-12-29T03:23:27;99739.00;;;12.84;76.50
8699;BME280;4386;51.236;6.742;2022-12-29T03:24:33;99715.91;;;12.85;76.41
8699;BME280;4386;51.236;6.742;2022-12-29T03:25:40;99720.25;;;12.86;76.57
8699;BME280;4386;51.236;6.742;2022-12-29T03:26:45;99718.38;;;12.86;76.36
8699;BME280;4386;51.236;6.742;2022-12-29T03:27:51;99722.72;;;12.87;76.48
8699;BME280;4386;51.236;6.742;2022-12-29T03:28:55;99723.38;;;12.89;76.24
8699;BME280;4386;51.236;6.742;2022-12-29T03:30:01;99723.38;;;12.89;76.28
8699;BME280;4386;51.236;6.742;2022-12-29T03:31:06;99726.75;;;12.91;76.40
8699;BME280;4386;51.236;6.742;2022-12-29T03:32:11;99722.25;;;12.92;76.15
8699;BME280;4386;51.236;6.742;2022-12-29T03:33:17;99726.75;;;12.91;76.40
8699;BME280;4386;51.236;6.742;2022-12-29T03:34:22;99721.25;;;12.93;76.28
8699;BME280;4386;51.236;6.742;2022-12-29T03:35:28;99719.41;;;12.93;76.46
8699;BME280;4386;51.236;6.742;2022-12-29T03:36:37;99721.09;;;12.94;76.36
8699;BME280;4386;51.236;6.742;2022-12-29T03:37:45;99717.59;;;12.94;76.22
8699;BME280;4386;51.236;6.742;2022-12-29T03:38:57;99732.72;;;12.93;76.19
8699;BME280;4386;51.236;6.742;2022-12-29T03:40:02;99726.56;;;12.93;76.37
8699;BME280;4386;51.236;6.742;2022-12-29T03:41:11;99721.94;;;12.95;76.34
8699;BME280;4386;51.236;6.742;2022-12-29T03:42:16;99716.63;;;12.95;76.26
8699;BME280;4386;51.236;6.742;2022-12-29T03:43:19;99717.47;;;12.95;76.20
8699;BME280;4386;51.236;6.742;2022-12-29T03:44:31;99714.81;;;12.95;76.17
8699;BME280;4386;51.236;6.742;2022-12-29T03:45:35;99719.94;;;12.97;76.25
8699;BME280;4386;51.236;6.742;2022-12-29T03:46:39;99718.97;;;12.98;76.14
8699;BME280;4386;51.236;6.742;2022-12-29T03:47:43;99721.44;;;12.99;76.25
8699;BME280;4386;51.236;6.742;2022-12-29T03:48:47;99710.81;;;12.99;76.08
8699;BME280;4386;51.236;6.742;2022-12-29T03:49:50;99712.47;;;13.00;76.13
8699;BME280;4386;51.236;6.742;2022-12-29T03:50:53;99715.00;;;13.02;76.06
8699;BME280;4386;51.236;6.742;2022-12-29T03:51:55;99714.81;;;13.03;75.96
8699;BME280;4386;51.236;6.742;2022-12-29T03:52:57;99714.81;;;13.03;75.99
8699;BME280;4386;51.236;6.742;2022-12-29T03:53:59;99705.84;;;13.04;75.85
8699;BME280;4386;51.236;6.742;2022-12-29T03:55:02;99704.19;;;13.03;76.03
8699;BME280;4386;51.236;6.742;2022-12-29T03:56:03;99707.50;;;13.05;76.17
8699;BME280;4386;51.236;6.742;2022-12-29T03:57:06;99702.19;;;13.05;75.74
8699;BME280;4386;51.236;6.742;2022-12-29T03:58:08;99698.53;;;13.06;75.80
8699;BME280;4386;51.236;6.742;2022-12-29T03:59:10;99693.22;;;13.06;75.79
8699;BME280;4386;51.236;6.742;2022-12-29T04:00:12;99698.53;;;13.06;75.78
8699;BME280;4386;51.236;6.742;2022-12-29T04:01:15;99680.75;;;13.07;75.69
8699;BME280;4386;51.236;6.742;2022-12-29T04:02:18;99679.91;;;13.06;75.64
8699;BME280;4386;51.236;6.742;2022-12-29T04:03:20;99684.25;;;13.07;75.87
8699;BME280;4386;51.236;6.742;2022-12-29T04:04:23;99675.31;;;13.09;76.08
8699;BME280;4386;51.236;6.742;2022-12-29T04:05:26;99675.31;;;13.09;75.90
8699;BME280;4386;51.236;6.742;2022-12-29T04:06:29;99687.59;;;13.10;75.79
8699;BME280;4386;51.236;6.742;2022-12-29T04:07:32;99673.31;;;13.11;75.62
8699;BME280;4386;51.236;6.742;2022-12-29T04:08:36;99685.78;;;13.10;75.57
8699;BME280;4386;51.236;6.742;2022-12-29T04:09:38;99690.13;;;13.11;75.71
8699;BME280;4386;51.236;6.742;2022-12-29T04:10:40;99690.13;;;13.11;75.31
8699;BME280;4386;51.236;6.742;2022-12-29T04:11:42;99679.47;;;13.11;75.64
8699;BME280;4386;51.236;6.742;2022-12-29T04:12:45;99694.59;;;13.11;75.47
8699;BME280;4386;51.236;6.742;2022-12-29T04:13:47;99702.56;;;13.11;75.60
8699;BME280;4386;51.236;6.742;2022-12-29T04:14:50;99690.94;;;13.12;75.60
8699;BME280;4386;51.236;6.742;2022-12-29T04:15:53;99702.56;;;13.11;75.33
8699;BME280;4386;51.236;6.742;2022-12-29T04:16:56;99694.59;;;13.11;75.66
8699;BME280;4386;51.236;6.742;2022-12-29T04:18:01;99707.72;;;13.12;75.76
8699;BME280;4386;51.236;6.742;2022-12-29T04:19:06;99693.44;;;13.13;75.48
8699;BME280;4386;51.236;6.742;2022-12-29T04:20:10;99703.25;;;13.13;75.73
8699;BME280;4386;51.236;6.742;2022-12-29T04:21:33;99697.91;;;13.13;75.55
8699;BME280;4386;51.236;6.742;2022-12-29T04:22:35;99708.56;;;13.13;75.60
8699;BME280;4386;51.236;6.742;2022-12-29T04:23:38;99711.22;;;13.13;75.55
8699;BME280;4386;51.236;6.742;2022-12-29T04:24:41;99712.06;;;13.13;75.42
8699;BME280;4386;51.236;6.742;2022-12-29T04:25:45;99713.72;;;13.14;75.40
8699;BME280;4386;51.236;6.742;2022-12-29T04:26:48;99710.22;;;13.14;75.27
8699;BME280;4386;51.236;6.742;2022-12-29T04:27:50;99710.22;;;13.14;75.67
8699;BME280;4386;51.236;6.742;2022-12-29T04:28:52;99715.56;;;13.14;75.06
8699;BME280;4386;51.236;6.742;2022-12-29T04:29:54;99710.22;;;13.14;74.89
8699;BME280;4386;51.236;6.742;2022-12-29T04:31:06;99710.56;;;13.11;75.18
8699;BME280;4386;51.236;6.742;2022-12-29T04:32:09;99713.38;;;13.09;75.23
8699;BME280;4386;51.236;6.742;2022-12-29T04:33:10;99713.50;;;13.07;74.96
8699;BME280;4386;51.236;6.742;2022-12-29T04:34:14;99694.88;;;13.07;75.26
8699;BME280;4386;51.236;6.742;2022-12-29T04:35:16;99680.91;;;13.05;75.06
8699;BME280;4386;51.236;6.742;2022-12-29T04:36:22;99702.19;;;13.05;75.49
8699;BME280;4386;51.236;6.742;2022-12-29T04:37:31;99706.69;;;13.05;75.22
8699;BME280;4386;51.236;6.742;2022-12-29T04:38:34;99689.06;;;13.04;74.71
8699;BME280;4386;51.236;6.742;2022-12-29T04:39:37;99700.53;;;13.04;75.05
8699;BME280;4386;51.236;6.742;2022-12-29T04:40:40;99693.53;;;13.03;75.10
8699;BME280;4386;51.236;6.742;2022-12-29T04:41:43;99697.88;;;13.04;74.93
8699;BME280;4386;51.236;6.742;2022-12-29T04:42:46;99698.72;;;13.05;74.98
8699;BME280;4386;51.236;6.742;2022-12-29T04:43:49;99700.53;;;13.04;74.91
8699;BME280;4386;51.236;6.742;2022-12-29T04:44:50;99682.91;;;13.03;75.22
8699;BME280;4386;51.236;6.742;2022-12-29T04:45:53;99701.50;;;13.03;74.57
8699;BME280;4386;51.236;6.742;2022-12-29T04:46:55;99707.81;;;13.02;74.85
8699;BME280;4386;51.236;6.742;2022-12-29T04:47:58;99708.66;;;13.03;74.65
8699;BME280;4386;51.236;6.742;2022-12-29T04:48:59;99718.47;;;13.02;74.78
8699;BME280;4386;51.236;6.742;2022-12-29T04:50:19;99713.13;;;13.02;74.44
8699;BME280;4386;51.236;6.742;2022-12-29T04:51:22;99713.97;;;13.03;74.68
8699;BME280;4386;51.236;6.742;2022-12-29T04:52:25;99727.13;;;13.04;74.59
8699;BME280;4386;51.236;6.742;2022-12-29T04:53:29;99718.13;;;13.05;74.36
8699;BME280;4386;51.236;6.742;2022-12-29T04:54:33;99720.66;;;13.07;74.44
8699;BME280;4386;51.236;6.742;2022-12-29T04:55:39;99719.66;;;13.08;74.10
8699;BME280;4386;51.236;6.742;2022-12-29T04:56:41;99712.56;;;13.09;74.56
8699;BME280;4386;51.236;6.742;2022-12-29T04:57:43;99714.19;;;13.10;73.91
8699;BME280;4386;51.236;6.742;2022-12-29T04:58:45;99712.38;;;13.10;74.35
8699;BME280;4386;51.236;6.742;2022-12-29T04:59:47;99718.38;;;13.12;74.19
8699;BME280;4386;51.236;6.742;2022-12-29T05:00:50;99709.72;;;13.10;74.20
8699;BME280;4386;51.236;6.742;2022-12-29T05:01:51;99717.56;;;13.12;74.23
8699;BME280;4386;51.236;6.742;2022-12-29T05:02:54;99718.53;;;13.11;74.07
8699;BME280;4386;51.236;6.742;2022-12-29T05:03:56;99726.53;;;13.11;74.04
8699;BME280;4386;51.236;6.742;2022-12-29T05:04:59;99716.72;;;13.11;74.09
8699;BME280;4386;51.236;6.742;2022-12-29T05:06:01;99714.91;;;13.12;74.03
8699;BME280;4386;51.236;6.742;2022-12-29T05:07:04;99723.69;;;13.12;74.10
8699;BME280;4386;51.236;6.742;2022-12-29T05:08:06;99717.56;;;13.12;74.00
8699;BME280;4386;51.236;6.742;2022-12-29T05:09:10;99719.19;;;13.13;74.03
8699;BME280;4386;51.236;6.742;2022-12-29T05:10:13;99724.53;;;13.13;74.01
8699;BME280;4386;51.236;6.742;2022-12-29T05:11:16;99721.84;;;13.13;74.03
8699;BME280;4386;51.236;6.742;2022-12-29T05:12:29;99719.19;;;13.13;73.93
8699;BME280;4386;51.236;6.742;2022-12-29T05:13:32;99728.19;;;13.12;74.02
8699;BME280;4386;51.236;6.742;2022-12-29T05:14:34;99727.19;;;13.13;73.96
8699;BME280;4386;51.236;6.742;2022-12-29T05:15:47;99728.84;;;13.14;74.00
8699;BME280;4386;51.236;6.742;2022-12-29T05:16:50;99723.69;;;13.12;73.93
8699;BME280;4386;51.236;6.742;2022-12-29T05:17:53;99732.50;;;13.13;73.95
8699;BME280;4386;51.236;6.742;2022-12-29T05:18:54;99747.47;;;13.14;73.94
8699;BME280;4386;51.236;6.742;2022-12-29T05:19:57;99731.53;;;13.14;73.94
8699;BME280;4386;51.236;6.742;2022-12-29T05:20:59;99741.31;;;13.13;73.77
8699;BME280;4386;51.236;6.742;2022-12-29T05:22:02;99732.34;;;13.14;74.12
8699;BME280;4386;51.236;6.742;2022-12-29T05:23:04;99733.19;;;13.15;74.03
8699;BME280;4386;51.236;6.742;2022-12-29T05:24:06;99741.16;;;13.15;73.77
8699;BME280;4386;51.236;6.742;2022-12-29T05:25:09;99736.84;;;13.14;74.00
8699;BME280;4386;51.236;6.742;2022-12-29T05:26:12;99730.53;;;13.15;73.70
8699;BME280;4386;51.236;6.742;2022-12-29T05:27:14;99734.19;;;13.14;73.84
8699;BME280;4386;51.236;6.742;2022-12-29T05:28:17;99733.19;;;13.15;73.72
8699;BME280;4386;51.236;6.742;2022-12-29T05:29:20;99727.88;;;13.15;73.82
8699;BME280;4386;51.236;6.742;2022-12-29T05:30:22;99726.19;;;13.14;73.83
8699;BME280;4386;51.236;6.742;2022-12-29T05:31:24;99735.16;;;13.13;73.89
8699;BME280;4386;51.236;6.742;2022-12-29T05:32:26;99733.50;;;13.12;73.86
8699;BME280;4386;51.236;6.742;2022-12-29T05:33:28;99732.81;;;13.10;73.80
8699;BME280;4386;51.236;6.742;2022-12-29T05:34:30;99730.31;;;13.08;73.84
8699;BME280;4386;51.236;6.742;2022-12-29T05:35:33;99730.44;;;13.06;73.74
8699;BME280;4386;51.236;6.742;2022-12-29T05:36:46;99730.63;;;13.05;73.81
8699;BME280;4386;51.236;6.742;2022-12-29T05:37:57;99727.13;;;13.04;73.77
8699;BME280;4386;51.236;6.742;2022-12-29T05:38:59;99736.09;;;13.03;73.84
8699;BME280;4386;51.236;6.742;2022-12-29T05:40:01;99742.25;;;13.04;73.67
8699;BME280;4386;51.236;6.742;2022-12-29T05:41:05;99737.91;;;13.03;73.88
8699;BME280;4386;51.236;6.742;2022-12-29T05:42:08;99722.97;;;13.02;73.75
8699;BME280;4386;51.236;6.742;2022-12-29T05:43:10;99721.28;;;13.01;73.87
8699;BME280;4386;51.236;6.742;2022-12-29T05:44:12;99719.47;;;13.01;73.77
8699;BME280;4386;51.236;6.742;2022-12-29T05:45:15;99722.97;;;13.02;73.96
8699;BME280;4386;51.236;6.742;2022-12-29T05:46:17;99729.94;;;13.03;73.76
8699;BME280;4386;51.236;6.742;2022-12-29T05:47:20;99719.28;;;13.03;73.72
8699;BME280;4386;51.236;6.742;2022-12-29T05:48:22;99736.09;;;13.03;73.75
8699;BME280;4386;51.236;6.742;2022-12-29T05:49:25;99725.44;;;13.03;73.92
8699;BME280;4386;51.236;6.742;2022-12-29T05:50:27;99723.47;;;13.05;73.80
8699;BME280;4386;51.236;6.742;2022-12-29T05:51:30;99726.13;;;13.05;73.67
8699;BME280;4386;51.236;6.742;2022-12-29T05:52:32;99733.13;;;13.06;73.69
8699;BME280;4386;51.236;6.742;2022-12-29T05:53:35;99730.44;;;13.06;73.47
8699;BME280;4386;51.236;6.742;2022-12-29T05:54:40;99733.94;;;13.07;73.73
8699;BME280;4386;51.236;6.742;2022-12-29T05:55:47;99719.66;;;13.08;73.53
8699;BME280;4386;51.236;6.742;2022-12-29T05:56:53;99726.81;;;13.07;73.77
8699;BME280;4386;51.236;6.742;2022-12-29T05:57:56;99730.16;;;13.10;73.27
8699;BME280;4386;51.236;6.742;2022-12-29T05:58:58;99743.47;;;13.10;73.28
8699;BME280;4386;51.236;6.742;2022-12-29T06:00:01;99739.81;;;13.11;73.30
8699;BME280;4386;51.236;6.742;2022-12-29T06:01:07;99752.28;;;13.10;73.21
8699;BME280;4386;51.236;6.742;2022-12-29T06:02:10;99752.28;;;13.10;72.86
8699;BME280;4386;51.236;6.742;2022-12-29T06:03:12;99763.75;;;13.11;73.16
8699;BME280;4386;51.236;6.742;2022-12-29T06:04:14;99758.25;;;13.12;73.24
8699;BME280;4386;51.236;6.742;2022-12-29T06:05:16;99765.44;;;13.12;73.03
8699;BME280;4386;51.236;6.742;2022-12-29T06:06:19;99770.75;;;13.12;73.00
8699;BME280;4386;51.236;6.742;2022-12-29T06:07:20;99768.09;;;13.12;72.96
8699;BME280;4386;51.236;6.742;2022-12-29T06:08:23;99767.09;;;13.13;72.79